Time;durP1;ratioP1;P1;durP2;ratioP2;P2;SDS_P1;SDS_P2;PMS_P1;PMS_P2;Temp;Humidity;BMP_temperature;BMP_pressure;BME280_temperature;BME280_humidity;BME280_pressure;Samples;Min_cycle;Max_cycle;Signal;HPM_P1;HPM_P2
2023/01/04 00:01:28;;;;;;;15.60;12.50;;;4.20;99.90;;;;;;4996213;28;20295;-68
2023/01/04 00:03:54;;;;;;;14.73;12.00;;;4.10;99.90;;;;;;4996080;28;20422;-68
2023/01/04 00:06:20;;;;;;;15.27;12.20;;;4.10;99.90;;;;;;4996118;28;20170;-67
2023/01/04 00:08:45;;;;;;;14.70;11.77;;;4.10;99.90;;;;;;4995865;28;20258;-68
2023/01/04 00:11:20;;;;;;;15.43;13.77;;;4.10;99.90;;;;;;4995698;28;20881;-68
2023/01/04 00:13:46;;;;;;;16.97;12.27;;;4.10;99.90;;;;;;4976689;28;20172;-68
2023/01/04 00:16:15;;;;;;;14.73;12.53;;;4.10;99.90;;;;;;4990358;28;20514;-68
2023/01/04 00:18:41;;;;;;;14.17;12.10;;;4.10;99.90;;;;;;4987166;28;20490;-66
2023/01/04 00:21:24;;;;;;;13.23;11.80;;;4.10;99.90;;;;;;4995643;28;20509;-68
2023/01/04 00:23:53;;;;;;;15.20;11.73;;;4.10;99.90;;;;;;4995681;28;20419;-68
2023/01/04 00:26:23;;;;;;;13.60;9.80;;;4.00;99.90;;;;;;4988989;28;20453;-68
2023/01/04 00:29:00;;;;;;;14.20;11.60;;;4.00;99.90;;;;;;4981294;28;20430;-68
2023/01/04 00:31:27;;;;;;;15.10;11.57;;;4.00;99.90;;;;;;4995336;28;20442;-66
2023/01/04 00:33:54;;;;;;;13.30;10.77;;;3.90;99.90;;;;;;4995536;28;20509;-67
2023/01/04 00:36:20;;;;;;;14.07;11.50;;;3.90;99.90;;;;;;4995307;28;20959;-68
2023/01/04 00:38:45;;;;;;;13.67;12.10;;;3.80;99.90;;;;;;4994663;28;20541;-68
2023/01/04 00:41:12;;;;;;;14.10;12.33;;;3.80;99.90;;;;;;4992306;28;20550;-68
2023/01/04 00:43:38;;;;;;;15.40;11.10;;;3.80;99.90;;;;;;4993593;28;20171;-69
2023/01/04 00:46:05;;;;;;;14.50;12.20;;;3.80;99.90;;;;;;4994961;28;20947;-67
2023/01/04 00:48:31;;;;;;;14.00;11.63;;;3.80;99.90;;;;;;4993867;28;20186;-68
2023/01/04 00:50:57;;;;;;;14.87;10.77;;;3.80;99.90;;;;;;4995296;28;20447;-68
2023/01/04 00:53:22;;;;;;;16.03;10.87;;;3.70;99.90;;;;;;4995163;28;20660;-68
2023/01/04 00:55:48;;;;;;;16.60;12.03;;;3.70;99.90;;;;;;4994025;28;20182;-68
2023/01/04 00:58:13;;;;;;;13.60;11.40;;;3.60;99.90;;;;;;4993079;28;20190;-69
2023/01/04 01:00:39;;;;;;;14.10;12.13;;;3.60;99.90;;;;;;5002929;28;20665;-68
2023/01/04 01:03:05;;;;;;;14.97;11.33;;;3.60;99.90;;;;;;5003676;28;20655;-68
2023/01/04 01:05:34;;;;;;;16.50;12.07;;;3.60;99.90;;;;;;4995006;28;20318;-69
2023/01/04 01:08:23;;;;;;;14.73;11.87;;;3.60;99.90;;;;;;4995051;28;20426;-68
2023/01/04 01:10:45;;;;;;;16.43;10.33;;;3.60;99.90;;;;;;4994685;28;20998;-68
2023/01/04 01:13:11;;;;;;;14.00;12.20;;;3.60;99.90;;;;;;4994913;28;20415;-69
2023/01/04 01:15:36;;;;;;;13.13;10.80;;;3.60;99.90;;;;;;4994942;28;20194;-69
2023/01/04 01:18:02;;;;;;;13.63;10.63;;;3.60;99.90;;;;;;4981307;28;20653;-68
2023/01/04 01:20:27;;;;;;;12.37;10.00;;;3.60;99.90;;;;;;4985404;28;20212;-70
2023/01/04 01:22:53;;;;;;;12.00;9.60;;;3.60;99.90;;;;;;4994693;28;20179;-69
2023/01/04 01:25:18;;;;;;;12.10;10.10;;;3.70;99.90;;;;;;4994678;28;20660;-69
2023/01/04 01:27:44;;;;;;;11.30;9.50;;;3.70;99.90;;;;;;4994767;28;20167;-69
2023/01/04 01:30:09;;;;;;;9.60;8.17;;;3.70;99.90;;;;;;4994261;28;20199;-69
2023/01/04 01:32:35;;;;;;;10.77;9.33;;;3.70;99.90;;;;;;4994502;28;20207;-69
2023/01/04 01:35:00;;;;;;;11.50;8.23;;;3.70;99.90;;;;;;4994634;28;20179;-69
2023/01/04 01:37:26;;;;;;;11.00;8.27;;;3.80;99.90;;;;;;4994372;28;20250;-68
2023/01/04 01:39:51;;;;;;;9.10;7.57;;;3.80;99.90;;;;;;4993873;28;20687;-68
2023/01/04 01:42:19;;;;;;;10.10;8.20;;;3.80;99.90;;;;;;4994456;28;20255;-69
2023/01/04 01:44:45;;;;;;;12.17;9.30;;;3.80;99.90;;;;;;4994417;28;20185;-69
2023/01/04 01:47:17;;;;;;;11.03;8.67;;;3.90;99.90;;;;;;4994374;28;20414;-69
2023/01/04 01:49:45;;;;;;;11.03;8.77;;;3.90;99.90;;;;;;4993917;28;20210;-69
2023/01/04 01:52:15;;;;;;;11.00;8.50;;;4.00;99.90;;;;;;4994096;28;20981;-68
2023/01/04 01:54:45;;;;;;;13.47;8.20;;;4.00;99.90;;;;;;4993902;28;20525;-67
2023/01/04 01:57:16;;;;;;;8.90;7.63;;;4.00;99.90;;;;;;4994177;28;20465;-69
2023/01/04 01:59:44;;;;;;;9.87;8.23;;;4.00;99.90;;;;;;4993696;28;20462;-69
2023/01/04 02:02:10;;;;;;;9.30;7.80;;;4.00;99.90;;;;;;4993433;28;20470;-69
2023/01/04 02:04:40;;;;;;;7.27;6.50;;;4.00;99.90;;;;;;4995326;28;20868;-69
2023/01/04 02:07:06;;;;;;;10.13;6.57;;;4.00;99.90;;;;;;5003778;28;20460;-69
2023/01/04 02:09:32;;;;;;;7.40;6.70;;;4.00;99.90;;;;;;4995190;28;20444;-69
2023/01/04 02:11:58;;;;;;;8.80;6.23;;;4.00;99.90;;;;;;5000589;28;20473;-68
2023/01/04 02:14:27;;;;;;;7.50;6.13;;;4.10;99.90;;;;;;5000296;28;20975;-68
2023/01/04 02:16:59;;;;;;;8.40;6.57;;;4.10;99.90;;;;;;5004024;28;20563;-68
2023/01/04 02:19:49;;;;;;;11.50;7.80;;;4.10;99.90;;;;;;5001192;28;20474;-69
2023/01/04 02:22:52;;;;;;;10.97;7.20;;;4.10;99.90;;;;;;4997669;28;20438;-68
2023/01/04 02:25:52;;;;;;;10.77;6.97;;;4.20;99.90;;;;;;5006468;28;20420;-69
2023/01/04 02:29:06;;;;;;;8.17;6.77;;;4.20;99.90;;;;;;5003191;28;20427;-69
2023/01/04 02:31:39;;;;;;;9.37;6.50;;;4.20;99.90;;;;;;4993397;28;20438;-67
2023/01/04 02:34:18;;;;;;;10.07;7.50;;;4.10;99.90;;;;;;4993434;28;20414;-68
2023/01/04 02:37:02;;;;;;;8.70;6.77;;;4.10;99.90;;;;;;4993372;28;20458;-70
2023/01/04 02:39:49;;;;;;;9.97;7.60;;;4.10;99.90;;;;;;4992881;28;20965;-69
2023/01/04 02:45:22;;;;;;;8.43;6.37;;;4.10;99.90;;;;;;4983238;28;20438;-68
2023/01/04 02:50:38;;;;;;;8.60;6.90;;;4.00;99.90;;;;;;4992878;28;20453;-69
2023/01/04 02:53:36;;;;;;;8.53;7.00;;;4.00;99.90;;;;;;4993132;28;20418;-67
2023/01/04 02:56:17;;;;;;;6.97;6.00;;;4.00;99.90;;;;;;4983907;28;20439;-69
2023/01/04 02:58:56;;;;;;;9.33;7.27;;;4.00;99.90;;;;;;4992722;28;20507;-69
2023/01/04 03:08:04;;;;;;;8.77;7.10;;;4.00;99.90;;;;;;4992991;28;20438;-69
2023/01/04 03:11:00;;;;;;;7.27;5.97;;;4.00;99.90;;;;;;4992520;28;20975;-67
2023/01/04 03:13:41;;;;;;;7.67;6.53;;;4.00;99.90;;;;;;4992026;28;20438;-67
2023/01/04 03:16:15;;;;;;;8.40;7.20;;;3.90;99.90;;;;;;4992890;28;20429;-68
2023/01/04 03:18:45;;;;;;;8.37;6.20;;;3.90;99.90;;;;;;4991619;28;20458;-68
2023/01/04 03:21:13;;;;;;;11.90;8.43;;;3.90;99.90;;;;;;4992584;28;20443;-68
2023/01/04 03:35:27;;;;;;;8.10;6.90;;;3.80;99.90;;;;;;4992537;28;20801;-68
2023/01/04 03:49:44;;;;;;;6.77;5.80;;;3.70;99.90;;;;;;4996860;28;20497;-69
2023/01/04 03:52:12;;;;;;;9.23;5.60;;;3.80;99.90;;;;;;4999016;28;20438;-67
2023/01/04 03:54:41;;;;;;;5.60;5.00;;;3.80;99.90;;;;;;4998702;28;20484;-69
2023/01/04 03:57:08;;;;;;;6.00;4.93;;;3.90;99.90;;;;;;5012069;28;20417;-68
2023/01/04 03:59:44;;;;;;;6.63;5.27;;;3.90;99.90;;;;;;4994098;28;20466;-68
2023/01/04 04:02:12;;;;;;;5.47;4.40;;;4.00;99.90;;;;;;4992490;28;20554;-68
2023/01/04 04:10:09;;;;;;;4.97;4.17;;;4.10;99.90;;;;;;4992200;28;20469;-68
2023/01/04 04:12:35;;;;;;;5.20;4.70;;;4.20;99.90;;;;;;4992454;28;20877;-68
2023/01/04 04:15:00;;;;;;;6.33;5.23;;;4.30;99.90;;;;;;4992272;28;20179;-67
2023/01/04 04:17:26;;;;;;;5.63;4.20;;;4.30;99.90;;;;;;4992233;28;20180;-69
2023/01/04 04:19:51;;;;;;;5.17;4.10;;;4.30;99.90;;;;;;4991761;28;20204;-68
2023/01/04 04:22:17;;;;;;;5.20;4.70;;;4.40;99.90;;;;;;4992199;28;20516;-69
2023/01/04 04:24:42;;;;;;;6.67;3.97;;;4.40;99.90;;;;;;4990876;28;20625;-68
2023/01/04 04:27:08;;;;;;;4.60;4.20;;;4.40;99.90;;;;;;4992185;28;20180;-67
2023/01/04 04:29:34;;;;;;;4.60;3.80;;;4.40;99.90;;;;;;4993732;28;20187;-68
2023/01/04 04:31:59;;;;;;;4.23;3.83;;;4.40;99.90;;;;;;4995664;28;20179;-69
2023/01/04 04:34:25;;;;;;;4.33;3.23;;;4.40;99.90;;;;;;4995634;28;20172;-68
2023/01/04 04:36:50;;;;;;;4.70;4.20;;;4.40;99.90;;;;;;4995587;28;20298;-67
2023/01/04 04:39:16;;;;;;;4.90;3.80;;;4.50;99.90;;;;;;4995286;28;20203;-68
2023/01/04 04:41:42;;;;;;;4.70;3.57;;;4.50;99.90;;;;;;4995542;28;20205;-69
2023/01/04 04:44:13;;;;;;;3.40;3.10;;;4.50;99.90;;;;;;4995328;28;20995;-69
2023/01/04 04:46:39;;;;;;;4.63;3.80;;;4.60;99.90;;;;;;4995554;28;20164;-69
2023/01/04 04:49:06;;;;;;;4.83;3.70;;;4.60;99.90;;;;;;4995026;28;20791;-69
2023/01/04 04:51:32;;;;;;;3.60;3.40;;;4.60;99.90;;;;;;4995292;28;20716;-69
2023/01/04 04:53:57;;;;;;;3.90;3.20;;;4.70;99.90;;;;;;5001126;28;20495;-69
2023/01/04 04:56:23;;;;;;;3.43;3.13;;;4.70;99.90;;;;;;5006618;28;20670;-69
2023/01/04 04:58:49;;;;;;;4.00;3.20;;;4.70;99.90;;;;;;5013240;28;20548;-68
2023/01/04 05:01:14;;;;;;;4.17;3.67;;;4.80;99.90;;;;;;4995138;28;20204;-69
2023/01/04 05:03:40;;;;;;;3.43;2.73;;;4.80;99.90;;;;;;4995220;28;20195;-69
2023/01/04 05:06:06;;;;;;;4.27;3.87;;;4.80;99.90;;;;;;4995088;28;20226;-68
2023/01/04 05:08:31;;;;;;;3.70;3.10;;;4.80;99.90;;;;;;4994808;28;20171;-67
2023/01/04 05:10:57;;;;;;;2.77;2.50;;;4.80;99.90;;;;;;4995238;28;20736;-69
2023/01/04 05:13:22;;;;;;;3.10;2.77;;;4.80;99.90;;;;;;4994983;28;20179;-69
2023/01/04 05:15:51;;;;;;;4.90;3.03;;;4.90;99.90;;;;;;4994942;28;20167;-68
2023/01/04 05:18:18;;;;;;;3.57;3.27;;;4.90;99.90;;;;;;4994451;28;20184;-68
2023/01/04 05:20:44;;;;;;;4.20;3.77;;;4.90;99.90;;;;;;4994801;28;20596;-68
2023/01/04 05:23:11;;;;;;;3.67;2.60;;;5.00;99.90;;;;;;4994828;28;20489;-70
2023/01/04 05:25:37;;;;;;;2.80;2.57;;;5.00;99.90;;;;;;4994727;28;20171;-68
2023/01/04 05:28:05;;;;;;;3.60;2.90;;;5.10;99.90;;;;;;4994749;28;20538;-69
2023/01/04 05:33:15;;;;;;;4.00;3.30;;;5.10;99.90;;;;;;4994573;28;20492;-69
2023/01/04 05:35:40;;;;;;;3.63;3.33;;;5.20;99.90;;;;;;4994488;28;20422;-68
2023/01/04 05:38:06;;;;;;;4.30;3.17;;;5.20;99.90;;;;;;4994460;28;20792;-68
2023/01/04 05:40:32;;;;;;;3.23;2.93;;;5.20;99.90;;;;;;4993456;28;20204;-69
2023/01/04 05:42:57;;;;;;;3.20;2.87;;;5.20;99.90;;;;;;4994428;28;20171;-69
2023/01/04 05:45:23;;;;;;;3.33;2.50;;;5.20;99.90;;;;;;4994384;28;20176;-69
2023/01/04 05:47:52;;;;;;;3.23;2.93;;;5.30;99.90;;;;;;4994219;28;20178;-68
2023/01/04 05:50:19;;;;;;;3.97;3.30;;;5.30;99.90;;;;;;4993885;28;20191;-68
2023/01/04 05:52:45;;;;;;;3.67;2.90;;;5.40;99.90;;;;;;4994079;28;20430;-69
2023/01/04 05:55:11;;;;;;;3.10;2.90;;;5.40;99.90;;;;;;4993573;28;20434;-68
2023/01/04 05:57:37;;;;;;;2.90;2.63;;;5.50;99.90;;;;;;4996284;28;20947;-68
2023/01/04 06:00:04;;;;;;;4.10;3.70;;;5.50;99.90;;;;;;5000409;28;20592;-69
2023/01/04 06:02:30;;;;;;;2.90;2.70;;;5.60;99.90;;;;;;5003757;28;20179;-69
2023/01/04 06:04:56;;;;;;;3.63;3.00;;;5.70;99.90;;;;;;5008731;28;20430;-70
2023/01/04 06:07:22;;;;;;;2.43;2.23;;;5.70;99.90;;;;;;4992642;28;20422;-69
2023/01/04 06:09:47;;;;;;;2.97;2.67;;;5.80;99.90;;;;;;4993288;28;20286;-69
2023/01/04 06:12:13;;;;;;;2.97;2.67;;;5.80;99.90;;;;;;4993871;28;20422;-68
2023/01/04 06:14:39;;;;;;;2.93;2.63;;;5.90;99.90;;;;;;4993846;28;20846;-70
2023/01/04 06:17:05;;;;;;;3.87;3.10;;;5.90;99.90;;;;;;4993656;28;20172;-69
2023/01/04 06:19:30;;;;;;;3.03;2.70;;;5.90;99.90;;;;;;4993226;28;20465;-69
2023/01/04 06:21:56;;;;;;;3.77;3.37;;;5.90;99.90;;;;;;4993566;28;20766;-68
2023/01/04 06:24:22;;;;;;;3.43;2.80;;;5.90;99.90;;;;;;4993665;28;20574;-69
2023/01/04 06:26:47;;;;;;;3.33;3.03;;;5.90;99.90;;;;;;4993568;28;20639;-69
2023/01/04 06:29:13;;;;;;;3.87;2.73;;;5.90;99.90;;;;;;4993255;28;20172;-69
2023/01/04 06:31:38;;;;;;;3.73;3.43;;;5.90;99.90;;;;;;4993249;28;20200;-68
2023/01/04 06:34:04;;;;;;;2.70;2.47;;;5.90;99.90;;;;;;4993625;28;20192;-69
2023/01/04 06:36:30;;;;;;;4.87;2.60;;;5.90;99.90;;;;;;4993387;28;20584;-68
2023/01/04 06:38:59;;;;;;;2.90;2.67;;;6.00;99.90;;;;;;4993033;28;20604;-71
2023/01/04 06:41:25;;;;;;;3.00;2.20;;;6.00;99.90;;;;;;4993267;28;20282;-68
2023/01/04 06:43:52;;;;;;;3.33;3.00;;;6.00;99.90;;;;;;4993343;28;21015;-69
2023/01/04 06:46:18;;;;;;;2.40;2.17;;;6.00;99.90;;;;;;4992185;28;20784;-69
2023/01/04 06:48:43;;;;;;;3.17;2.40;;;6.00;99.90;;;;;;4992842;28;20427;-69
2023/01/04 06:51:09;;;;;;;3.20;2.60;;;6.10;99.90;;;;;;4993358;28;20442;-70
2023/01/04 06:53:34;;;;;;;2.77;2.40;;;6.10;99.90;;;;;;4992224;28;20202;-68
2023/01/04 06:56:00;;;;;;;6.50;2.53;;;6.10;99.90;;;;;;4992789;28;20267;-69
2023/01/04 06:58:26;;;;;;;2.57;1.90;;;6.10;99.90;;;;;;4992315;28;20307;-70
2023/01/04 07:00:52;;;;;;;6.23;2.43;;;6.20;99.90;;;;;;4992510;28;20648;-68
2023/01/04 07:03:18;;;;;;;1.83;1.70;;;6.20;99.90;;;;;;4992749;28;20176;-68
2023/01/04 07:05:44;;;;;;;2.00;1.70;;;6.20;99.90;;;;;;4992595;28;20580;-69
2023/01/04 07:08:10;;;;;;;2.57;2.07;;;6.20;99.90;;;;;;4992419;28;20172;-66
2023/01/04 07:10:36;;;;;;;2.23;2.03;;;6.30;99.90;;;;;;4992272;28;20466;-70
2023/01/04 07:13:02;;;;;;;1.63;1.53;;;6.30;99.90;;;;;;4992427;28;20435;-69
2023/01/04 07:15:28;;;;;;;1.53;1.40;;;6.30;99.90;;;;;;4992503;28;20433;-69
2023/01/04 07:17:53;;;;;;;2.93;1.77;;;6.30;99.90;;;;;;4992251;28;20179;-69
2023/01/04 07:20:19;;;;;;;3.27;2.10;;;6.30;99.90;;;;;;4990740;28;20580;-68
2023/01/04 07:22:44;;;;;;;2.20;2.00;;;6.30;99.90;;;;;;4992365;28;20808;-69
2023/01/04 07:25:10;;;;;;;2.47;1.60;;;6.30;99.90;;;;;;4992360;28;20179;-69
2023/01/04 07:27:35;;;;;;;4.33;1.97;;;6.30;99.90;;;;;;4991099;28;20270;-68
2023/01/04 07:30:01;;;;;;;4.37;1.60;;;6.30;99.90;;;;;;4992225;28;20279;-69
2023/01/04 07:32:26;;;;;;;2.13;1.63;;;6.20;99.90;;;;;;4992664;28;20176;-71
2023/01/04 07:34:52;;;;;;;2.47;1.60;;;6.10;99.90;;;;;;4992436;28;20238;-68
2023/01/04 07:37:18;;;;;;;3.13;2.83;;;6.00;99.90;;;;;;4992599;28;20179;-71
2023/01/04 07:39:44;;;;;;;3.80;2.13;;;5.90;99.90;;;;;;4992128;28;20266;-70
2023/01/04 07:42:10;;;;;;;2.37;2.10;;;5.90;99.90;;;;;;4992432;28;20419;-71
2023/01/04 07:44:35;;;;;;;2.90;2.10;;;5.80;99.90;;;;;;4992396;28;20187;-71
2023/01/04 07:47:01;;;;;;;3.83;2.20;;;5.80;99.90;;;;;;4992460;28;20774;-70
2023/01/04 07:49:27;;;;;;;5.47;3.00;;;5.80;99.90;;;;;;4992167;28;20676;-71
2023/01/04 07:51:52;;;;;;;2.87;2.37;;;5.70;99.90;;;;;;4992340;28;20194;-70
2023/01/04 07:54:18;;;;;;;2.83;1.70;;;5.70;99.90;;;;;;4992388;28;20183;-69
2023/01/04 07:56:46;;;;;;;3.00;2.10;;;5.70;99.90;;;;;;4992335;28;20171;-69
2023/01/04 07:59:13;;;;;;;1.90;1.73;;;5.70;99.90;;;;;;4991974;28;20454;-70
2023/01/04 08:01:39;;;;;;;2.00;1.80;;;5.70;99.90;;;;;;4995723;28;20465;-68
2023/01/04 08:04:05;;;;;;;4.53;2.43;;;5.70;99.90;;;;;;4994800;28;20441;-71
2023/01/04 08:06:32;;;;;;;2.10;1.80;;;5.70;99.90;;;;;;4996315;28;20480;-69
2023/01/04 08:08:58;;;;;;;4.83;1.60;;;5.70;99.90;;;;;;4997714;28;20497;-69
2023/01/04 08:11:23;;;;;;;4.17;1.97;;;5.70;99.90;;;;;;4995734;28;20472;-68
2023/01/04 08:13:49;;;;;;;3.20;2.00;;;5.70;99.90;;;;;;4973106;28;20442;-69
2023/01/04 08:16:30;;;;;;;1.97;1.77;;;5.70;99.90;;;;;;4974869;28;20183;-69
2023/01/04 08:19:07;;;;;;;4.00;1.50;;;5.80;99.90;;;;;;4990399;28;20474;-69
2023/01/04 08:21:34;;;;;;;4.33;1.87;;;5.70;99.90;;;;;;4986049;28;20461;-69
2023/01/04 08:24:00;;;;;;;4.60;2.77;;;5.80;99.90;;;;;;4987896;28;20441;-70
2023/01/04 08:26:27;;;;;;;1.80;1.60;;;5.70;99.90;;;;;;4995684;28;20492;-70
2023/01/04 08:28:53;;;;;;;3.63;1.87;;;5.80;99.90;;;;;;4995072;28;20457;-69
2023/01/04 08:31:25;;;;;;;5.00;1.90;;;5.80;99.90;;;;;;4995558;28;20454;-68
2023/01/04 08:33:51;;;;;;;3.10;1.90;;;5.80;99.90;;;;;;4990666;28;20430;-67
2023/01/04 08:36:28;;;;;;;5.17;2.47;;;5.80;99.90;;;;;;4991330;28;20500;-71
2023/01/04 08:38:58;;;;;;;3.47;1.83;;;5.80;99.90;;;;;;4995202;28;20544;-68
2023/01/04 08:41:24;;;;;;;3.10;1.50;;;5.80;99.90;;;;;;4994389;28;20496;-69
2023/01/04 08:43:50;;;;;;;1.87;1.70;;;5.80;99.90;;;;;;4991683;28;20841;-68
2023/01/04 08:46:16;;;;;;;3.33;1.30;;;5.90;99.90;;;;;;4995481;28;20176;-70
2023/01/04 08:48:41;;;;;;;1.43;1.33;;;5.90;99.90;;;;;;4994583;28;20191;-69
2023/01/04 08:51:10;;;;;;;2.73;1.50;;;5.90;99.90;;;;;;4994740;28;20222;-70
2023/01/04 08:53:36;;;;;;;1.50;1.10;;;5.90;99.90;;;;;;4991976;28;20549;-69
2023/01/04 08:56:02;;;;;;;2.63;1.43;;;5.90;99.90;;;;;;4989431;28;20432;-69
2023/01/04 08:58:29;;;;;;;2.57;1.00;;;6.00;99.90;;;;;;4977779;28;20183;-70
2023/01/04 09:01:09;;;;;;;1.90;1.50;;;6.00;99.90;;;;;;4994421;28;20445;-70
2023/01/04 09:03:35;;;;;;;4.00;2.23;;;6.00;99.90;;;;;;4991134;28;20425;-69
2023/01/04 09:06:12;;;;;;;1.73;1.23;;;6.10;99.90;;;;;;4994980;28;20497;-69
2023/01/04 09:08:39;;;;;;;3.37;1.63;;;6.00;99.90;;;;;;4986051;28;20430;-69
2023/01/04 09:11:15;;;;;;;2.10;1.40;;;6.10;99.90;;;;;;4994758;28;20450;-68
2023/01/04 09:13:41;;;;;;;1.80;1.67;;;6.10;99.90;;;;;;4991112;28;20429;-69
2023/01/04 09:16:11;;;;;;;2.73;1.37;;;6.10;99.90;;;;;;4993111;28;20950;-69
2023/01/04 09:18:37;;;;;;;2.30;1.47;;;6.10;99.90;;;;;;4994531;28;20415;-70
2023/01/04 09:21:08;;;;;;;1.67;1.57;;;6.20;99.90;;;;;;4994220;28;20447;-69
2023/01/04 09:23:35;;;;;;;1.70;1.60;;;6.20;99.90;;;;;;4983151;28;20168;-69
2023/01/04 09:26:05;;;;;;;2.23;1.20;;;6.30;99.90;;;;;;4988132;28;20530;-69
2023/01/04 09:28:31;;;;;;;2.20;1.50;;;6.30;99.90;;;;;;4985026;28;20430;-69
2023/01/04 09:30:56;;;;;;;1.03;0.93;;;6.40;99.90;;;;;;4994641;28;20476;-67
2023/01/04 09:33:22;;;;;;;2.37;1.30;;;6.50;99.90;;;;;;4990497;28;20184;-70
2023/01/04 09:35:47;;;;;;;4.87;1.73;;;6.70;99.90;;;;;;4994682;28;20167;-70
2023/01/04 09:38:13;;;;;;;2.23;1.20;;;6.80;99.90;;;;;;4989601;28;20204;-68
2023/01/04 09:41:06;;;;;;;2.40;1.23;;;6.90;99.90;;;;;;4988730;28;20214;-71
2023/01/04 09:43:55;;;;;;;1.87;1.13;;;6.90;99.90;;;;;;4991054;28;20180;-70
2023/01/04 09:46:41;;;;;;;2.17;1.37;;;6.90;99.90;;;;;;4993557;28;20433;-70
2023/01/04 09:49:21;;;;;;;1.53;1.43;;;7.00;99.90;;;;;;4994065;28;20407;-70
2023/01/04 09:52:02;;;;;;;1.97;1.00;;;7.00;99.90;;;;;;4974339;28;20447;-70
2023/01/04 09:54:52;;;;;;;1.60;1.20;;;7.10;99.90;;;;;;4987082;28;20504;-70
2023/01/04 09:57:25;;;;;;;1.63;1.20;;;7.10;99.90;;;;;;4994191;28;20435;-70
2023/01/04 09:59:57;;;;;;;1.60;1.10;;;7.20;99.90;;;;;;4980640;28;20479;-69
2023/01/04 10:02:44;;;;;;;1.13;0.93;;;7.20;99.90;;;;;;4974063;28;20498;-67
2023/01/04 10:05:18;;;;;;;3.47;2.27;;;7.30;99.90;;;;;;4993184;28;20426;-70
2023/01/04 10:07:43;;;;;;;1.57;1.10;;;7.30;99.90;;;;;;4987538;28;20557;-69
2023/01/04 10:10:14;;;;;;;2.20;1.13;;;7.40;99.90;;;;;;4993368;28;20991;-70
2023/01/04 10:13:02;;;;;;;1.23;1.00;;;7.40;99.90;;;;;;4990789;28;20198;-68
2023/01/04 10:15:58;;;;;;;1.77;0.87;;;7.40;99.90;;;;;;5013061;28;20429;-70
2023/01/04 10:18:32;;;;;;;1.80;1.70;;;7.40;99.90;;;;;;4988874;28;20432;-70
2023/01/04 10:21:25;;;;;;;3.00;1.30;;;7.40;99.90;;;;;;4983025;28;20446;-68
2023/01/04 10:24:24;;;;;;;1.83;1.17;;;7.40;99.90;;;;;;4989266;28;20489;-68
2023/01/04 10:26:55;;;;;;;1.10;1.00;;;7.40;99.90;;;;;;4993330;28;20411;-69
2023/01/04 10:29:26;;;;;;;1.83;1.30;;;7.50;99.90;;;;;;4991336;28;20477;-69
2023/01/04 10:32:02;;;;;;;3.77;1.13;;;7.50;99.90;;;;;;4974074;28;21011;-68
2023/01/04 10:34:36;;;;;;;3.17;1.37;;;7.50;99.90;;;;;;4987176;28;20942;-68
2023/01/04 10:37:22;;;;;;;2.63;1.20;;;7.60;99.90;;;;;;4974876;28;20435;-68
2023/01/04 10:39:54;;;;;;;1.07;1.07;;;7.60;99.90;;;;;;4976143;28;21145;-69
2023/01/04 10:42:45;;;;;;;1.60;1.00;;;7.70;99.90;;;;;;4992836;28;20426;-68
2023/01/04 10:45:26;;;;;;;1.20;1.10;;;7.70;99.90;;;;;;4992679;28;20513;-67
2023/01/04 10:48:11;;;;;;;1.67;0.87;;;7.80;99.90;;;;;;4985189;28;20450;-69
2023/01/04 10:51:00;;;;;;;1.77;1.13;;;7.80;99.90;;;;;;4973690;28;20443;-72
2023/01/04 10:53:51;;;;;;;1.90;1.00;;;8.00;99.90;;;;;;4978854;28;20426;-66
2023/01/04 10:56:27;;;;;;;0.80;0.80;;;8.00;99.90;;;;;;4973683;28;20439;-68
2023/01/04 10:59:04;;;;;;;2.33;1.03;;;8.10;99.90;;;;;;4987326;28;20458;-67
2023/01/04 11:01:40;;;;;;;0.80;0.80;;;8.10;99.90;;;;;;4982077;28;20451;-67
2023/01/04 11:04:24;;;;;;;2.63;1.30;;;8.20;99.90;;;;;;4984447;28;20835;-68
2023/01/04 11:06:55;;;;;;;0.80;0.80;;;8.20;99.90;;;;;;4992448;28;20477;-65
2023/01/04 11:09:31;;;;;;;4.50;1.80;;;8.20;99.90;;;;;;4991922;28;20426;-65
2023/01/04 11:11:57;;;;;;;1.43;1.20;;;8.20;99.90;;;;;;4993355;28;20462;-64
2023/01/04 11:14:24;;;;;;;1.40;0.97;;;8.20;99.90;;;;;;4985226;28;20459;-66
2023/01/04 11:16:54;;;;;;;4.23;1.20;;;8.30;99.90;;;;;;4992788;28;20267;-64
2023/01/04 11:19:19;;;;;;;1.63;1.23;;;8.30;99.90;;;;;;4991973;28;20482;-66
2023/01/04 11:21:56;;;;;;;2.80;1.73;;;8.30;99.90;;;;;;4977552;28;21014;-66
2023/01/04 11:24:22;;;;;;;5.87;4.93;;;8.30;99.90;;;;;;4986180;28;20172;-66
2023/01/04 11:26:49;;;;;;;10.70;8.10;;;8.40;99.90;;;;;;4983268;28;20427;-66
2023/01/04 11:29:43;;;;;;;1.63;1.13;;;8.40;99.90;;;;;;4972950;28;21067;-66
2023/01/04 11:32:43;;;;;;;7.57;6.03;;;8.40;99.90;;;;;;4983517;28;20423;-65
2023/01/04 11:35:08;;;;;;;1.27;1.17;;;8.50;99.90;;;;;;4990718;28;20426;-67
2023/01/04 11:37:36;;;;;;;1.27;1.03;;;8.50;99.90;;;;;;4986699;28;20829;-69
2023/01/04 11:40:17;;;;;;;1.80;1.13;;;8.50;99.90;;;;;;4995289;28;20207;-68
2023/01/04 11:42:44;;;;;;;2.43;1.10;;;8.50;99.90;;;;;;4993725;28;21862;-68
2023/01/04 11:45:17;;;;;;;3.37;1.20;;;8.60;99.90;;;;;;4995118;28;20426;-70
2023/01/04 11:47:54;;;;;;;1.00;0.90;;;8.60;99.90;;;;;;4996501;28;20465;-67
2023/01/04 11:50:38;;;;;;;3.13;1.50;;;8.70;99.90;;;;;;4995642;28;20452;-68
2023/01/04 11:53:22;;;;;;;1.60;1.30;;;8.60;99.90;;;;;;4980717;28;20581;-69
2023/01/04 11:55:48;;;;;;;1.63;1.10;;;8.60;99.90;;;;;;4996414;28;20501;-69
2023/01/04 11:58:16;;;;;;;1.43;1.23;;;8.60;99.90;;;;;;4995151;28;20577;-68
2023/01/04 12:00:53;;;;;;;1.97;1.20;;;8.70;99.90;;;;;;4996139;28;20204;-69
2023/01/04 12:03:38;;;;;;;2.33;1.27;;;8.70;99.90;;;;;;4992187;28;20422;-68
2023/01/04 12:06:24;;;;;;;3.17;1.20;;;8.70;99.90;;;;;;4995713;28;20430;-68
2023/01/04 12:08:49;;;;;;;5.60;1.67;;;8.80;99.90;;;;;;4981118;28;20436;-66
2023/01/04 12:11:21;;;;;;;1.87;1.43;;;8.80;99.90;;;;;;4993811;28;20470;-69
2023/01/04 12:13:47;;;;;;;1.87;1.67;;;8.90;99.90;;;;;;4992566;28;20195;-68
2023/01/04 12:16:35;;;;;;;1.30;1.20;;;8.80;99.90;;;;;;4995189;28;20457;-69
2023/01/04 12:19:03;;;;;;;2.90;1.50;;;8.90;99.90;;;;;;4985669;28;20212;-69
2023/01/04 12:21:33;;;;;;;2.87;1.37;;;8.90;99.90;;;;;;4995113;28;20443;-69
2023/01/04 12:23:59;;;;;;;1.50;1.40;;;8.90;99.90;;;;;;4991856;28;20429;-69
2023/01/04 12:26:25;;;;;;;0.80;0.80;;;8.90;99.90;;;;;;4995677;28;20442;-69
2023/01/04 12:29:22;;;;;;;1.30;1.20;;;8.90;99.90;;;;;;4994858;28;20453;-69
2023/01/04 12:31:48;;;;;;;1.30;1.10;;;8.90;99.90;;;;;;4995408;28;20426;-69
2023/01/04 12:34:24;;;;;;;1.50;1.40;;;8.90;99.90;;;;;;4992699;28;20770;-69
2023/01/04 12:36:54;;;;;;;1.60;1.50;;;8.90;99.90;;;;;;4986430;28;20776;-68
2023/01/04 12:39:21;;;;;;;5.03;1.73;;;8.90;99.90;;;;;;4995160;28;20465;-69
2023/01/04 12:42:02;;;;;;;1.43;1.30;;;9.00;99.90;;;;;;4993440;28;20454;-69
2023/01/04 12:44:51;;;;;;;2.20;1.20;;;9.00;99.90;;;;;;4991615;28;20790;-69
2023/01/04 12:50:09;;;;;;;3.03;1.17;;;9.00;99.90;;;;;;4975668;28;20524;-69
2023/01/04 12:52:47;;;;;;;2.10;1.50;;;9.10;99.90;;;;;;4976942;28;20459;-68
2023/01/04 12:55:31;;;;;;;3.00;1.83;;;9.10;99.90;;;;;;4993993;28;20426;-68
2023/01/04 12:57:58;;;;;;;2.87;1.23;;;9.10;99.90;;;;;;4989613;28;20427;-67
2023/01/04 13:00:49;;;;;;;1.40;1.30;;;9.10;99.90;;;;;;4974974;28;20482;-68
2023/01/04 13:03:15;;;;;;;1.30;1.20;;;9.10;99.90;;;;;;4979340;28;20427;-68
2023/01/04 13:05:49;;;;;;;1.70;1.40;;;9.10;99.90;;;;;;4990399;28;20426;-70
2023/01/04 13:08:14;;;;;;;2.27;1.40;;;9.10;99.90;;;;;;4975209;28;20423;-68
2023/01/04 13:10:50;;;;;;;1.73;0.80;;;9.10;99.90;;;;;;4974293;28;20474;-67
2023/01/04 13:13:35;;;;;;;3.73;1.13;;;9.20;99.90;;;;;;4980025;28;20683;-68
2023/01/04 13:16:10;;;;;;;2.40;1.60;;;9.20;99.90;;;;;;4994180;28;20796;-69
2023/01/04 13:18:55;;;;;;;2.93;1.40;;;9.20;99.90;;;;;;4994377;28;20433;-68
2023/01/04 13:21:29;;;;;;;2.40;1.20;;;9.20;99.90;;;;;;4993924;28;20523;-67
2023/01/04 13:23:57;;;;;;;1.00;0.80;;;9.30;99.90;;;;;;4991338;28;20814;-69
2023/01/04 13:26:35;;;;;;;4.50;1.60;;;9.30;99.90;;;;;;4994133;28;20426;-68
2023/01/04 13:29:17;;;;;;;3.00;2.30;;;9.40;99.90;;;;;;4993784;28;20430;-68
2023/01/04 13:31:54;;;;;;;2.50;1.20;;;9.40;99.90;;;;;;4994530;28;20446;-68
2023/01/04 13:34:35;;;;;;;2.37;1.40;;;9.50;99.90;;;;;;4990020;28;20939;-68
2023/01/04 13:37:10;;;;;;;1.40;1.30;;;9.50;99.90;;;;;;4994479;28;20469;-68
2023/01/04 13:39:38;;;;;;;5.30;1.33;;;9.50;99.90;;;;;;4993331;28;20967;-69
2023/01/04 13:42:05;;;;;;;2.87;1.27;;;9.50;99.90;;;;;;4981681;28;20522;-69
2023/01/04 13:44:39;;;;;;;1.57;1.07;;;9.50;99.90;;;;;;4989004;28;20429;-67
2023/01/04 13:47:08;;;;;;;1.30;1.17;;;9.60;99.90;;;;;;4982660;28;20408;-69
2023/01/04 13:49:37;;;;;;;0.90;0.67;;;9.70;99.90;;;;;;4993463;28;20430;-68
2023/01/04 13:52:22;;;;;;;2.43;0.70;;;9.70;99.90;;;;;;4993499;28;20509;-68
2023/01/04 13:54:48;;;;;;;1.47;0.80;;;9.80;99.90;;;;;;4991829;28;20939;-69
2023/01/04 13:57:20;;;;;;;1.00;0.93;;;9.80;99.90;;;;;;4984901;28;20436;-69
2023/01/04 13:59:50;;;;;;;1.83;1.03;;;9.80;99.90;;;;;;4991710;28;20711;-69
2023/01/04 14:02:20;;;;;;;1.90;0.90;;;9.80;99.90;;;;;;4992729;28;20794;-68